Time;durP1;ratioP1;P1;durP2;ratioP2;P2;SDS_P1;SDS_P2;PMS_P1;PMS_P2;Temp;Humidity;BMP_temperature;BMP_pressure;BME280_temperature;BME280_humidity;BME280_pressure;Samples;Min_cycle;Max_cycle;Signal;HPM_P1;HPM_P2
2022/11/07 00:01:18;;;;;;;3.60;3.30;;;;;;;7.33;100.00;97947.59;15279345;19;20027;-48
2022/11/07 00:06:49;;;;;;;5.20;3.30;;;;;;;7.31;100.00;97938.88;15271742;19;20050;-49
2022/11/07 00:12:16;;;;;;;3.40;3.10;;;;;;;7.23;100.00;97947.66;15274136;19;20025;-49
2022/11/07 00:17:41;;;;;;;3.72;3.17;;;;;;;7.18;100.00;97938.38;15274508;19;20015;-50
2022/11/07 00:23:07;;;;;;;3.42;3.05;;;;;;;7.13;100.00;97946.88;15266242;19;20478;-50
2022/11/07 00:28:35;;;;;;;3.55;3.25;;;;;;;7.04;100.00;97942.44;15266575;19;20018;-50
2022/11/07 00:34:00;;;;;;;3.60;3.30;;;;;;;6.98;100.00;97948.38;15270536;19;20392;-50
2022/11/07 00:39:24;;;;;;;2.97;2.78;;;;;;;6.90;100.00;97959.81;15272497;19;20014;-49
2022/11/07 00:44:52;;;;;;;3.22;2.92;;;;;;;6.86;100.00;97967.31;15266705;19;20410;-51
2022/11/07 00:50:17;;;;;;;3.10;2.90;;;;;;;6.83;100.00;97966.78;15273644;19;20647;-49
2022/11/07 00:55:43;;;;;;;3.00;2.80;;;;;;;6.77;100.00;97968.22;15262327;19;20036;-49
2022/11/07 01:01:15;;;;;;;3.05;2.85;;;;;;;6.73;100.00;97969.50;15275772;19;20475;-48
2022/11/07 01:06:42;;;;;;;3.00;2.80;;;;;;;6.66;100.00;97969.25;15265827;19;20031;-54
2022/11/07 01:12:07;;;;;;;4.80;2.90;;;;;;;6.63;100.00;97956.19;15273204;19;20082;-50
2022/11/07 01:17:34;;;;;;;2.95;2.75;;;;;;;6.56;100.00;97955.94;15271287;19;20025;-53
2022/11/07 01:22:59;;;;;;;3.35;2.85;;;;;;;6.53;100.00;97966.06;15268824;19;20026;-52
2022/11/07 01:28:24;;;;;;;2.60;2.40;;;;;;;6.43;100.00;97966.94;15263931;19;20014;-52
2022/11/07 01:33:52;;;;;;;3.85;2.60;;;;;;;6.39;100.00;97970.91;15267040;19;20007;-50
2022/11/07 01:39:11;;;;;;;2.80;2.60;;;;;;;6.21;100.00;97986.03;15270199;19;20896;-49
2022/11/07 01:44:55;;;;;;;2.75;2.38;;;;;;;6.11;100.00;97999.44;15268056;19;20018;-50
2022/11/07 01:50:22;;;;;;;3.00;2.70;;;;;;;6.13;100.00;97992.94;15270168;19;20011;-50
2022/11/07 01:55:47;;;;;;;2.80;2.60;;;;;;;6.14;100.00;97991.97;15264408;19;20010;-51
2022/11/07 02:01:12;;;;;;;3.00;2.50;;;;;;;6.12;100.00;97987.72;14754363;19;10000131;-50
2022/11/07 02:06:47;;;;;;;2.65;2.45;;;;;;;6.15;100.00;97996.31;15259872;19;20364;-50
2022/11/07 02:12:13;;;;;;;2.50;2.30;;;;;;;6.20;100.00;98013.75;15267897;19;20037;-50
2022/11/07 02:17:38;;;;;;;2.65;2.45;;;;;;;6.20;100.00;98019.97;15263899;19;20757;-50
2022/11/07 02:23:08;;;;;;;2.38;2.17;;;;;;;6.30;100.00;98025.28;15265221;19;20082;-51
2022/11/07 02:28:38;;;;;;;3.30;2.30;;;;;;;6.36;100.00;98039.91;15264610;19;20018;-50
2022/11/07 02:34:02;;;;;;;3.33;2.33;;;;;;;6.43;100.00;98049.91;15259256;19;20670;-50
2022/11/07 02:39:27;;;;;;;2.25;2.05;;;;;;;6.52;100.00;98056.22;15266724;19;20022;-50
2022/11/07 02:44:55;;;;;;;2.30;2.10;;;;;;;6.55;100.00;98057.75;15261802;19;20538;-54
2022/11/07 02:50:20;;;;;;;2.70;2.33;;;;;;;6.56;100.00;98051.41;15265921;19;20018;-53
2022/11/07 02:55:44;;;;;;;2.20;2.00;;;;;;;6.64;100.00;98064.94;15261215;19;20399;-51
2022/11/07 03:01:12;;;;;;;3.05;2.30;;;;;;;6.67;100.00;98063.78;15263396;19;20018;-51
2022/11/07 03:06:43;;;;;;;2.45;1.90;;;;;;;6.75;100.00;98058.56;15263774;19;20015;-52
2022/11/07 03:12:08;;;;;;;1.90;1.80;;;;;;;6.77;100.00;98060.09;15284880;19;20022;-51
2022/11/07 03:17:37;;;;;;;2.28;1.80;;;;;;;6.83;100.00;98068.53;15273144;19;20019;-53
2022/11/07 03:23:02;;;;;;;1.95;1.75;;;;;;;6.86;100.00;98089.66;15267871;19;20015;-51
2022/11/07 03:28:27;;;;;;;1.92;1.65;;;;;;;6.88;100.00;98090.38;15265883;19;20023;-52
2022/11/07 03:33:54;;;;;;;3.10;1.70;;;;;;;6.89;100.00;98092.91;15272397;19;20042;-52
2022/11/07 03:39:20;;;;;;;2.20;1.75;;;;;;;6.92;100.00;98097.09;15273285;19;20018;-52
2022/11/07 03:44:45;;;;;;;1.83;1.70;;;;;;;6.93;100.00;98096.13;15272141;19;20062;-52
2022/11/07 03:50:14;;;;;;;2.00;1.80;;;;;;;6.94;100.00;98087.94;15272591;19;20014;-51
2022/11/07 03:55:39;;;;;;;2.35;1.80;;;;;;;6.97;100.00;98091.31;15272202;19;20526;-52
2022/11/07 04:01:05;;;;;;;1.85;1.65;;;;;;;6.99;100.00;98094.69;15276882;19;20014;-50
2022/11/07 04:06:32;;;;;;;2.00;1.80;;;;;;;7.00;100.00;98094.53;15271724;19;20015;-51
2022/11/07 04:17:36;;;;;;;1.88;1.70;;;;;;;7.05;100.00;98092.28;15270323;19;20026;-51
2022/11/07 04:23:03;;;;;;;1.70;1.60;;;;;;;7.08;100.00;98097.34;15273571;19;20026;-50
2022/11/07 04:28:28;;;;;;;2.50;1.60;;;;;;;7.16;100.00;98101.09;15271755;19;20018;-51
2022/11/07 04:33:52;;;;;;;2.10;1.50;;;;;;;7.24;100.00;98118.13;15274147;19;20025;-54
2022/11/07 04:39:19;;;;;;;2.22;1.70;;;;;;;7.33;100.00;98120.91;15273924;19;20025;-54
2022/11/07 04:44:43;;;;;;;2.35;1.60;;;;;;;7.40;100.00;98124.72;15265054;19;20474;-55
2022/11/07 04:50:10;;;;;;;1.67;1.35;;;;;;;7.54;100.00;98115.31;15271528;19;20375;-53
2022/11/07 04:55:37;;;;;;;2.47;1.48;;;;;;;7.64;100.00;98117.94;15269462;19;20039;-52
2022/11/07 05:01:02;;;;;;;2.20;1.38;;;;;;;7.64;100.00;98108.06;15273856;19;20022;-52
2022/11/07 05:06:26;;;;;;;1.77;1.30;;;;;;;7.59;100.00;98121.06;15266124;19;20014;-53
2022/11/07 05:11:54;;;;;;;1.67;1.20;;;;;;;7.51;100.00;98120.97;15272735;19;20010;-51
2022/11/07 05:17:22;;;;;;;1.90;1.20;;;;;;;7.39;100.00;98120.34;15261036;19;20488;-55
2022/11/07 05:28:28;;;;;;;1.63;1.42;;;;;;;7.22;100.00;98132.69;15267899;19;20204;-49
2022/11/07 05:33:56;;;;;;;1.40;1.30;;;;;;;7.15;100.00;98142.28;15269643;19;20014;-50
2022/11/07 05:39:20;;;;;;;1.75;1.30;;;;;;;7.15;100.00;98147.63;15266229;19;20011;-50
2022/11/07 05:44:48;;;;;;;2.15;1.60;;;;;;;7.12;100.00;98153.28;15264590;19;20018;-54
2022/11/07 05:50:13;;;;;;;1.85;1.60;;;;;;;7.07;100.00;98157.25;15262688;19;20015;-50
2022/11/07 05:55:38;;;;;;;2.50;1.90;;;;;;;6.97;100.00;98158.25;15265385;19;20612;-52
2022/11/07 06:01:08;;;;;;;2.53;1.70;;;;;;;6.94;100.00;98172.78;15270076;19;20031;-53
2022/11/07 06:06:33;;;;;;;1.73;1.52;;;;;;;6.89;100.00;98177.72;15256382;19;20022;-55
2022/11/07 06:11:57;;;;;;;2.05;1.65;;;;;;;6.85;100.00;98179.03;15270905;19;20015;-53
2022/11/07 06:17:25;;;;;;;1.70;1.60;;;;;;;6.85;100.00;98185.22;15264419;19;20023;-62
2022/11/07 06:22:49;;;;;;;1.50;1.40;;;;;;;6.81;100.00;98177.59;15265656;19;20017;-56
2022/11/07 06:28:16;;;;;;;1.50;1.40;;;;;;;6.78;100.00;98176.91;15264532;19;20025;-60
2022/11/07 06:33:43;;;;;;;1.42;1.30;;;;;;;6.82;100.00;98187.34;15265349;19;20034;-57
2022/11/07 06:39:08;;;;;;;1.42;1.33;;;;;;;6.83;100.00;98186.34;15269919;19;20026;-54
2022/11/07 06:44:32;;;;;;;1.30;1.10;;;;;;;6.84;100.00;98201.44;15280322;19;20493;-62
2022/11/07 06:50:00;;;;;;;1.45;1.20;;;;;;;6.88;100.00;98197.50;15275429;19;20466;-58
2022/11/07 06:55:24;;;;;;;3.30;1.20;;;;;;;6.93;100.00;98209.47;15275938;19;20018;-53
2022/11/07 07:00:49;;;;;;;1.00;0.90;;;;;;;7.00;100.00;98208.88;15282901;19;20011;-55
2022/11/07 07:06:24;;;;;;;1.42;1.10;;;;;;;7.07;100.00;98205.47;15275968;19;20032;-59
2022/11/07 07:11:49;;;;;;;1.38;1.10;;;;;;;7.18;100.00;98214.34;15281284;19;20086;-57
2022/11/07 07:17:13;;;;;;;1.70;1.00;;;;;;;7.27;100.00;98231.38;15274236;19;20022;-61
2022/11/07 07:22:40;;;;;;;1.77;0.93;;;;;;;7.34;100.00;98230.66;15278271;19;20029;-62
2022/11/07 07:28:13;;;;;;;1.38;1.00;;;;;;;7.40;100.00;98238.09;15278460;19;20018;-63
2022/11/07 07:33:38;;;;;;;2.17;1.20;;;;;;;7.47;100.00;98246.41;14764662;19;10002405;-54
2022/11/07 07:39:05;;;;;;;2.03;1.13;;;;;;;7.54;100.00;98244.00;15279261;19;20470;-54
2022/11/07 07:44:30;;;;;;;1.23;1.10;;;;;;;7.62;100.00;98245.94;15276932;19;20014;-53
2022/11/07 07:49:54;;;;;;;1.23;1.13;;;;;;;7.75;100.00;98250.97;15275666;19;20584;-58
2022/11/07 07:55:22;;;;;;;1.88;1.20;;;;;;;7.91;100.00;98247.63;15269088;19;20031;-56
2022/11/07 08:00:47;;;;;;;1.63;1.10;;;;;;;8.06;100.00;98259.56;15277401;19;20022;-56
2022/11/07 08:06:18;;;;;;;1.05;0.90;;;;;;;8.23;100.00;98255.25;15273294;19;20031;-58
2022/11/07 08:11:46;;;;;;;1.97;1.00;;;;;;;8.38;100.00;98258.25;15273480;19;20038;-55
2022/11/07 08:17:09;;;;;;;1.77;1.00;;;;;;;8.50;100.00;98261.59;15270908;19;20022;-54
2022/11/07 08:22:34;;;;;;;2.42;1.00;;;;;;;8.64;100.00;98266.44;15276398;19;20490;-53
2022/11/07 08:28:01;;;;;;;1.45;0.82;;;;;;;8.73;100.00;98256.63;15266743;19;20014;-54
2022/11/07 08:33:33;;;;;;;2.15;0.80;;;;;;;8.90;100.00;98252.22;15274269;19;20019;-60
2022/11/07 08:38:58;;;;;;;1.63;0.90;;;;;;;9.11;100.00;98251.06;15274450;19;20026;-52
2022/11/07 08:44:25;;;;;;;0.90;0.68;;;;;;;9.43;100.00;98241.53;15271399;19;20050;-59
2022/11/07 08:49:50;;;;;;;1.02;0.70;;;;;;;9.76;100.00;98230.13;15272490;19;20019;-55
2022/11/07 08:55:15;;;;;;;1.67;0.70;;;;;;;9.97;100.00;98224.31;15270600;19;20015;-57
2022/11/07 09:00:43;;;;;;;1.35;0.60;;;;;;;10.12;100.00;98227.22;15268569;19;20018;-58
2022/11/07 09:06:07;;;;;;;1.45;0.80;;;;;;;10.29;100.00;98230.84;14956140;19;5011161;-56
2022/11/07 09:11:32;;;;;;;2.20;0.85;;;;;;;10.44;100.00;98223.81;15268737;19;20544;-54
2022/11/07 09:16:59;;;;;;;1.85;0.90;;;;;;;10.59;100.00;98217.78;15268396;19;20800;-56
2022/11/07 09:22:24;;;;;;;2.15;0.93;;;;;;;10.78;100.00;98212.06;15272513;19;20290;-57
2022/11/07 09:27:50;;;;;;;1.83;0.85;;;;;;;10.94;100.00;98213.09;15267680;19;20017;-51
2022/11/07 09:33:18;;;;;;;2.55;0.93;;;;;;;11.06;100.00;98206.34;15267746;19;20019;-55
2022/11/07 09:38:42;;;;;;;2.50;0.90;;;;;;;11.21;100.00;98209.19;15270751;19;20023;-57
2022/11/07 09:44:24;;;;;;;2.67;1.08;;;;;;;11.34;100.00;98208.69;15269518;19;20043;-58
2022/11/07 09:49:58;;;;;;;3.38;1.10;;;;;;;11.53;100.00;98203.91;15269218;19;20031;-54
2022/11/07 09:55:28;;;;;;;3.05;0.98;;;;;;;11.69;100.00;98198.47;15266794;19;20011;-56
2022/11/07 10:00:52;;;;;;;3.90;1.10;;;;;;;11.81;100.00;98198.09;15270314;19;20018;-58
2022/11/07 10:06:24;;;;;;;2.42;0.90;;;;;;;11.93;100.00;98201.22;15259862;19;20089;-54
2022/11/07 10:11:53;;;;;;;2.42;0.80;;;;;;;11.94;100.00;98187.53;15265645;19;20023;-60
2022/11/07 10:17:25;;;;;;;2.03;0.80;;;;;;;12.04;100.00;98208.13;15278230;19;20463;-58
2022/11/07 10:23:09;;;;;;;2.78;0.93;;;;;;;12.10;100.00;98204.72;15283704;19;20014;-57
2022/11/07 10:28:39;;;;;;;3.70;1.10;;;;;;;12.15;100.00;98208.56;15281996;19;20029;-56
2022/11/07 10:34:10;;;;;;;3.10;0.95;;;;;;;12.21;100.00;98207.03;15279611;19;20022;-52
2022/11/07 10:39:38;;;;;;;3.93;0.90;;;;;;;12.25;100.00;98200.25;15275311;19;20017;-54
2022/11/07 10:45:03;;;;;;;4.63;1.10;;;;;;;12.27;100.00;98198.22;15274878;19;20302;-56
2022/11/07 10:50:29;;;;;;;1.85;0.80;;;;;;;12.26;100.00;98201.94;15279839;19;20031;-55
2022/11/07 10:55:58;;;;;;;2.03;0.90;;;;;;;12.30;100.00;98202.44;15276225;19;20601;-58
2022/11/07 11:01:26;;;;;;;2.55;0.93;;;;;;;12.32;100.00;98209.31;15275056;19;20046;-60
2022/11/07 11:07:05;;;;;;;2.70;0.82;;;;;;;12.39;100.00;98216.72;15275099;19;20014;-64
2022/11/07 11:12:35;;;;;;;2.50;0.90;;;;;;;12.40;100.00;98213.00;15269699;19;20533;-56
2022/11/07 11:18:07;;;;;;;1.92;0.82;;;;;;;12.45;100.00;98211.47;15277893;19;20030;-52
2022/11/07 11:23:36;;;;;;;1.95;0.80;;;;;;;12.50;100.00;98186.59;15279537;19;20237;-53
2022/11/07 11:29:07;;;;;;;2.00;0.80;;;;;;;12.58;100.00;98189.22;15275011;19;20711;-55
2022/11/07 11:34:44;;;;;;;3.90;0.82;;;;;;;12.64;100.00;98188.50;15275666;19;20022;-53
2022/11/07 11:40:21;;;;;;;2.95;1.23;;;;;;;12.70;100.00;98184.22;15277756;19;20018;-60
2022/11/07 11:46:01;;;;;;;3.92;0.90;;;;;;;12.68;100.00;98188.16;15265878;19;20026;-58
2022/11/07 11:51:35;;;;;;;1.37;0.50;;;;;;;12.67;100.00;98187.31;15274918;19;20010;-53
2022/11/07 11:57:05;;;;;;;1.58;0.80;;;;;;;12.66;100.00;98187.47;15273376;19;20018;-53
2022/11/07 12:03:02;;;;;;;5.85;0.82;;;;;;;12.62;100.00;98179.75;15278143;19;20078;-58
2022/11/07 12:08:46;;;;;;;1.92;0.77;;;;;;;12.58;100.00;98189.22;15262632;19;20050;-63
2022/11/07 12:14:41;;;;;;;4.20;0.80;;;;;;;12.64;100.00;98199.31;15273389;19;20043;-58
2022/11/07 12:20:24;;;;;;;2.50;0.80;;;;;;;12.63;100.00;98203.06;15277949;19;20027;-59
2022/11/07 12:25:55;;;;;;;3.00;0.93;;;;;;;12.61;100.00;98215.06;15274318;19;20389;-60
2022/11/07 12:31:31;;;;;;;3.00;0.95;;;;;;;12.50;100.00;98197.41;15274846;19;20018;-62
2022/11/07 12:37:23;;;;;;;2.20;0.75;;;;;;;12.46;100.00;98206.88;15267998;19;20014;-61
2022/11/07 12:43:03;;;;;;;3.10;0.90;;;;;;;12.48;100.00;98194.03;15275917;19;20511;-62
2022/11/07 12:48:57;;;;;;;2.33;0.80;;;;;;;12.45;100.00;98187.16;15262770;19;20015;-61
2022/11/07 12:54:48;;;;;;;3.97;0.90;;;;;;;12.52;100.00;98187.28;15274976;19;20047;-59
2022/11/07 13:00:21;;;;;;;5.88;1.00;;;;;;;12.63;100.00;98186.84;15275141;19;20015;-60
2022/11/07 13:05:58;;;;;;;2.63;1.30;;;;;;;12.73;100.00;98185.75;15270495;19;20363;-60
2022/11/07 13:11:33;;;;;;;2.35;0.95;;;;;;;12.79;100.00;98185.03;15271319;19;20400;-57
2022/11/07 13:17:00;;;;;;;2.80;0.90;;;;;;;12.83;100.00;98186.34;15270942;19;20399;-56
2022/11/07 13:22:34;;;;;;;3.88;1.00;;;;;;;12.75;100.00;98183.72;15268826;19;20018;-65
2022/11/07 13:28:15;;;;;;;2.63;0.80;;;;;;;12.69;100.00;98173.63;15265966;19;20024;-60
2022/11/07 13:33:39;;;;;;;3.22;0.90;;;;;;;12.71;100.00;98166.16;15271877;19;20018;-62
2022/11/07 13:39:08;;;;;;;2.10;0.90;;;;;;;12.74;100.00;98173.94;15271516;19;20029;-58
2022/11/07 13:44:39;;;;;;;2.75;1.13;;;;;;;12.77;100.00;98170.84;15270040;19;20018;-62
2022/11/07 13:50:09;;;;;;;2.70;1.00;;;;;;;12.84;100.00;98162.84;15269327;19;20003;-62
2022/11/07 13:55:43;;;;;;;3.83;1.33;;;;;;;12.83;100.00;98174.69;15265277;19;20018;-63
2022/11/07 14:01:18;;;;;;;3.17;1.10;;;;;;;12.84;100.00;98174.50;15270393;19;20070;-61
2022/11/07 14:06:43;;;;;;;2.90;1.05;;;;;;;12.77;100.00;98171.69;15261460;19;20021;-59
2022/11/07 14:12:08;;;;;;;3.17;1.02;;;;;;;12.77;100.00;98184.34;15262251;19;20010;-58
2022/11/07 14:17:37;;;;;;;3.17;1.08;;;;;;;12.72;100.00;98189.47;15264750;19;20024;-59
2022/11/07 14:23:05;;;;;;;2.60;0.90;;;;;;;12.68;100.00;98182.75;15261653;19;21019;-60
2022/11/07 14:28:36;;;;;;;2.58;0.90;;;;;;;12.63;100.00;98180.59;15260224;19;20029;-59
2022/11/07 14:34:06;;;;;;;3.50;1.15;;;;;;;12.60;100.00;98181.78;15263787;19;20031;-59
2022/11/07 14:39:34;;;;;;;4.25;1.35;;;;;;;12.58;100.00;98194.63;15265564;19;20035;-58
2022/11/07 14:45:03;;;;;;;2.90;1.10;;;;;;;12.54;100.00;98187.91;15260484;19;20014;-59
2022/11/07 14:50:31;;;;;;;2.90;1.10;;;;;;;12.45;100.00;98187.16;15264841;19;20029;-61
2022/11/07 14:56:00;;;;;;;2.83;1.00;;;;;;;12.39;100.00;98181.63;15256697;19;20047;-59
2022/11/07 15:01:31;;;;;;;3.15;1.20;;;;;;;12.33;100.00;98169.66;15271533;19;21800;-62
2022/11/07 15:07:00;;;;;;;4.33;1.37;;;;;;;12.23;100.00;98159.06;15274719;19;20038;-60
2022/11/07 15:12:35;;;;;;;4.18;1.33;;;;;;;12.16;100.00;98168.94;15275130;19;20029;-62
2022/11/07 15:18:02;;;;;;;4.80;1.23;;;;;;;12.11;100.00;98188.34;15273334;19;20035;-61
2022/11/07 15:23:41;;;;;;;2.72;1.42;;;;;;;12.02;100.00;98190.25;15276283;19;20014;-60
2022/11/07 15:29:16;;;;;;;4.47;1.40;;;;;;;11.96;100.00;98211.69;15271187;19;20019;-61
2022/11/07 15:34:41;;;;;;;2.92;1.30;;;;;;;11.90;100.00;98207.81;15274724;19;20463;-57
2022/11/07 15:40:30;;;;;;;2.58;1.02;;;;;;;11.80;100.00;98223.38;15278044;19;20511;-60
2022/11/07 15:45:57;;;;;;;4.82;1.20;;;;;;;11.75;100.00;98225.75;15269051;19;20018;-61
2022/11/07 15:51:23;;;;;;;3.70;1.20;;;;;;;11.67;100.00;98230.19;15271306;19;20483;-62
2022/11/07 15:56:58;;;;;;;4.72;1.30;;;;;;;11.64;100.00;98229.69;15268477;19;20489;-59
2022/11/07 16:02:22;;;;;;;5.35;1.65;;;;;;;11.57;100.00;98237.63;15269114;19;20047;-60
2022/11/07 16:07:55;;;;;;;3.50;1.63;;;;;;;11.52;100.00;98234.59;15266640;19;20030;-59
2022/11/07 16:13:23;;;;;;;3.80;1.85;;;;;;;11.44;100.00;98245.41;15265422;19;20378;-58
2022/11/07 16:18:52;;;;;;;3.78;1.67;;;;;;;11.36;100.00;98247.06;15269011;19;20030;-60
2022/11/07 16:24:17;;;;;;;4.93;1.77;;;;;;;11.34;100.00;98243.75;15273264;19;20039;-56
2022/11/07 16:29:45;;;;;;;3.53;1.70;;;;;;;11.29;100.00;98243.41;15275087;19;20010;-58
2022/11/07 16:35:11;;;;;;;2.70;1.30;;;;;;;11.25;100.00;98244.72;15265192;19;20333;-58
2022/11/07 16:40:36;;;;;;;4.50;1.63;;;;;;;11.24;100.00;98246.59;15271708;19;20014;-59
2022/11/07 16:46:03;;;;;;;3.80;1.40;;;;;;;11.21;100.00;98248.81;15269291;19;20050;-60
2022/11/07 16:51:31;;;;;;;5.72;1.40;;;;;;;11.16;100.00;98253.84;15270718;19;20755;-56
2022/11/07 16:56:56;;;;;;;3.20;1.10;;;;;;;11.06;100.00;98260.25;15267184;19;20014;-59
2022/11/07 17:02:29;;;;;;;3.60;1.40;;;;;;;11.00;100.00;98260.91;15268695;19;20519;-61
2022/11/07 17:08:00;;;;;;;;;;;;;;;10.98;100.00;98265.66;15254841;19;20018;-58
2022/11/07 17:13:25;;;;;;;3.42;1.30;;;;;;;11.02;100.00;98260.75;15267567;19;19974;-58
2022/11/07 17:18:52;;;;;;;3.90;1.33;;;;;;;11.03;100.00;98255.19;15268985;19;20015;-60
2022/11/07 17:24:16;;;;;;;4.10;1.75;;;;;;;11.06;100.00;98240.53;15267063;19;20022;-59
2022/11/07 17:29:41;;;;;;;4.63;1.77;;;;;;;11.07;100.00;98226.91;15264443;19;20031;-60
2022/11/07 17:35:10;;;;;;;3.92;1.33;;;;;;;11.14;100.00;98224.38;15264364;19;20018;-60
2022/11/07 17:40:49;;;;;;;2.95;1.23;;;;;;;11.18;100.00;98222.16;15257995;19;20023;-61
2022/11/07 17:46:16;;;;;;;3.08;1.20;;;;;;;11.22;100.00;98212.75;15262723;19;20022;-62
2022/11/07 17:51:43;;;;;;;4.32;1.20;;;;;;;11.28;100.00;98222.00;15243897;19;20014;-60
2022/11/07 17:57:10;;;;;;;3.50;1.20;;;;;;;11.27;100.00;98223.84;15262028;19;20025;-61
2022/11/07 18:02:35;;;;;;;2.92;1.17;;;;;;;11.14;100.00;98221.66;15262747;19;20018;-61
2022/11/07 18:08:09;;;;;;;4.05;1.10;;;;;;;10.93;100.00;98224.88;15260239;19;20359;-59
2022/11/07 18:13:55;;;;;;;4.03;1.40;;;;;;;10.68;100.00;98232.94;15258363;19;20608;-61
2022/11/07 18:19:20;;;;;;;4.03;1.30;;;;;;;10.42;100.00;98233.06;15264398;19;20086;-61
2022/11/07 18:24:47;;;;;;;2.83;1.10;;;;;;;10.32;100.00;98238.56;15265949;19;20207;-62
2022/11/07 18:30:13;;;;;;;2.75;1.00;;;;;;;10.20;100.00;98237.19;15267449;19;20018;-61
2022/11/07 18:35:37;;;;;;;2.22;1.00;;;;;;;10.09;100.00;98244.56;15266925;19;20031;-62
2022/11/07 18:41:10;;;;;;;3.88;1.40;;;;;;;10.04;100.00;98241.53;15282561;19;20027;-61
2022/11/07 18:46:35;;;;;;;2.78;1.27;;;;;;;10.01;100.00;98242.66;15276029;19;20070;-61
2022/11/07 18:51:59;;;;;;;3.53;1.23;;;;;;;10.03;100.00;98247.91;15278525;19;20033;-61
2022/11/07 18:57:26;;;;;;;3.33;1.23;;;;;;;9.98;100.00;98234.94;15272073;19;20021;-61
2022/11/07 19:02:51;;;;;;;3.42;1.33;;;;;;;9.98;100.00;98242.16;15281734;19;20038;-61
2022/11/07 19:08:22;;;;;;;3.83;1.40;;;;;;;9.98;100.00;98247.53;15273799;19;20429;-61
2022/11/07 19:13:49;;;;;;;3.70;1.30;;;;;;;9.98;100.00;98255.59;15271397;19;20746;-60
2022/11/07 19:19:14;;;;;;;4.50;1.45;;;;;;;9.94;100.00;98252.41;15272400;19;20014;-61
2022/11/07 19:24:39;;;;;;;2.67;1.10;;;;;;;9.98;100.00;98253.78;15275827;19;20018;-63
2022/11/07 19:30:07;;;;;;;3.33;1.50;;;;;;;10.04;100.00;98271.13;15279883;19;20019;-63
2022/11/07 19:35:32;;;;;;;4.68;1.83;;;;;;;10.06;100.00;98257.50;15274721;19;20049;-63
2022/11/07 19:40:57;;;;;;;4.38;1.70;;;;;;;10.06;100.00;98263.72;15274698;19;20030;-63
2022/11/07 19:46:25;;;;;;;2.63;1.48;;;;;;;10.03;100.00;98269.44;15270584;19;20471;-63
2022/11/07 19:51:51;;;;;;;4.10;1.35;;;;;;;10.00;100.00;98277.81;15275541;19;20372;-62
2022/11/07 19:57:15;;;;;;;4.07;1.30;;;;;;;9.98;100.00;98279.84;15272135;19;20017;-62
2022/11/07 20:02:43;;;;;;;4.22;1.20;;;;;;;9.96;100.00;98276.44;15277887;19;20452;-63
2022/11/07 20:08:15;;;;;;;4.03;1.38;;;;;;;9.96;100.00;98279.13;15270511;19;20451;-63
2022/11/07 20:13:39;;;;;;;4.30;1.30;;;;;;;9.98;100.00;98286.06;15273631;19;20011;-62
2022/11/07 20:19:09;;;;;;;4.38;1.27;;;;;;;9.96;100.00;98284.53;15270674;19;20010;-63
2022/11/07 20:24:34;;;;;;;3.15;1.27;;;;;;;9.94;100.00;98289.22;15274526;19;20378;-63
2022/11/07 20:29:59;;;;;;;4.82;1.65;;;;;;;9.93;100.00;98295.63;15274714;19;20029;-61
2022/11/07 20:35:26;;;;;;;3.13;1.30;;;;;;;9.91;100.00;98300.31;15270185;19;20018;-64
2022/11/07 20:40:51;;;;;;;3.97;1.50;;;;;;;9.91;100.00;98300.31;15273436;19;20463;-64
2022/11/07 20:46:16;;;;;;;3.83;1.42;;;;;;;9.90;100.00;98302.16;15269128;19;20057;-61
2022/11/07 20:51:44;;;;;;;4.80;1.33;;;;;;;9.91;100.00;98297.63;15265920;19;20018;-62
2022/11/07 20:57:08;;;;;;;5.18;1.50;;;;;;;9.89;100.00;98300.47;15266640;19;20027;-62
2022/11/07 21:02:33;;;;;;;6.38;1.75;;;;;;;9.84;100.00;98298.25;15270978;19;20017;-63
2022/11/07 21:08:00;;;;;;;4.22;1.40;;;;;;;9.87;100.00;98308.72;15267319;19;20033;-63
2022/11/07 21:13:26;;;;;;;4.07;1.35;;;;;;;9.86;100.00;98309.72;15270020;19;20357;-62
2022/11/07 21:18:51;;;;;;;4.55;1.35;;;;;;;9.88;100.00;98314.91;15269355;19;20015;-62
2022/11/07 21:24:18;;;;;;;3.97;1.20;;;;;;;9.87;100.00;98314.09;15263786;19;20010;-63
2022/11/07 21:29:43;;;;;;;2.83;1.05;;;;;;;9.89;100.00;98318.47;15269352;19;20474;-62
2022/11/07 21:35:07;;;;;;;3.88;1.20;;;;;;;9.94;100.00;98310.75;15265620;19;20010;-63
2022/11/07 21:40:35;;;;;;;5.53;1.40;;;;;;;9.97;100.00;98313.13;15269135;19;20400;-64
2022/11/07 21:46:00;;;;;;;3.88;1.10;;;;;;;9.96;100.00;98317.69;15266993;19;20470;-63
2022/11/07 21:51:26;;;;;;;3.78;1.30;;;;;;;9.98;100.00;98312.13;15269293;19;20014;-63
2022/11/07 21:56:54;;;;;;;3.95;1.27;;;;;;;9.95;100.00;98307.06;15260349;19;20007;-63
2022/11/07 22:02:19;;;;;;;4.30;1.25;;;;;;;9.89;100.00;98315.78;15269900;19;20018;-63
2022/11/07 22:07:45;;;;;;;3.83;1.40;;;;;;;9.81;100.00;98309.38;15265305;19;20023;-63
2022/11/07 22:13:12;;;;;;;4.70;1.27;;;;;;;9.73;100.00;98314.66;15267295;19;20025;-63
2022/11/07 22:18:38;;;;;;;4.85;1.58;;;;;;;9.64;100.00;98310.25;15265489;19;20017;-63
2022/11/07 22:24:02;;;;;;;5.47;1.50;;;;;;;9.53;100.00;98328.34;15267743;19;20034;-63
2022/11/07 22:29:30;;;;;;;5.35;1.45;;;;;;;9.48;100.00;98330.63;15261931;19;20538;-62
2022/11/07 22:34:54;;;;;;;5.85;1.60;;;;;;;9.45;100.00;98322.03;15264141;19;20022;-63
2022/11/07 22:40:25;;;;;;;4.93;1.60;;;;;;;9.40;100.00;98309.94;15267297;19;20011;-63
2022/11/07 22:45:52;;;;;;;3.95;1.38;;;;;;;9.37;100.00;98304.88;15264706;19;20369;-62
2022/11/07 22:51:19;;;;;;;5.13;1.50;;;;;;;9.33;100.00;98305.34;15266758;19;20353;-62
2022/11/07 22:56:43;;;;;;;4.85;1.40;;;;;;;9.32;100.00;98300.97;15262080;19;20053;-62
2022/11/07 23:02:11;;;;;;;3.13;1.27;;;;;;;9.36;100.00;98305.00;15262471;19;20106;-62
2022/11/07 23:07:35;;;;;;;2.72;1.23;;;;;;;9.37;100.00;98306.69;15259830;19;20021;-63
2022/11/07 23:13:03;;;;;;;3.30;1.30;;;;;;;9.37;100.00;98302.19;15262974;19;20026;-63
2022/11/07 23:18:32;;;;;;;3.83;1.30;;;;;;;9.30;100.00;98305.63;15260372;19;20750;-63
2022/11/07 23:24:01;;;;;;;6.57;1.40;;;;;;;9.15;100.00;98298.13;15275905;19;20043;-62
2022/11/07 23:29:26;;;;;;;4.68;1.35;;;;;;;9.09;100.00;98299.59;15278990;19;20407;-62
2022/11/07 23:34:54;;;;;;;4.05;1.38;;;;;;;9.09;100.00;98304.13;15271353;19;20357;-62
2022/11/07 23:40:19;;;;;;;4.68;1.30;;;;;;;9.07;100.00;98290.00;15279930;19;20375;-62
2022/11/07 23:51:23;;;;;;;4.72;1.40;;;;;;;9.05;100.00;98303.59;15279649;19;20356;-63
2022/11/07 23:56:49;;;;;;;3.22;1.17;;;;;;;9.05;100.00;98295.53;14766406;19;9999803;-63
